Time;durP1;ratioP1;P1;durP2;ratioP2;P2;SDS_P1;SDS_P2;PMS_P1;PMS_P2;Temp;Humidity;BMP_temperature;BMP_pressure;BME280_temperature;BME280_humidity;BME280_pressure;Samples;Min_cycle;Max_cycle;Signal;HPM_P1;HPM_P2
2023/01/30 00:00:57;;;;;;;;;;;6.30;99.90;;;;;;8398795;28;19943;-74
2023/01/30 00:04:58;;;;;;;;;;;6.30;99.90;;;;;;8393128;28;19924;-75
2023/01/30 00:09:00;;;;;;;;;;;6.40;99.90;;;;;;8396217;28;19924;-74
2023/01/30 00:28:12;;;;;;;;;;;6.60;99.90;;;;;;8395013;28;19958;-74
2023/01/30 00:32:14;;;;;;;;;;;6.60;99.90;;;;;;8389515;28;19931;-74
2023/01/30 00:36:15;;;;;;;;;;;6.60;99.90;;;;;;8375705;28;19950;-74
2023/01/30 00:40:17;;;;;;;;;;;6.70;99.90;;;;;;8393056;28;20017;-74
2023/01/30 00:48:40;;;;;;;;;;;6.80;99.90;;;;;;8387673;28;19924;-75
2023/01/30 00:52:41;;;;;;;;;;;6.90;99.90;;;;;;8390606;28;19924;-74
2023/01/30 00:56:43;;;;;;;;;;;6.90;99.90;;;;;;8373128;28;20359;-74
2023/01/30 01:00:44;;;;;;;;;;;7.00;99.90;;;;;;8371635;28;19929;-74
2023/01/30 01:04:46;;;;;;;;;;;7.00;99.90;;;;;;8371884;28;20012;-74
2023/01/30 01:08:48;;;;;;;;;;;7.10;99.90;;;;;;8389935;28;19936;-75
2023/01/30 01:12:51;;;;;;;;;;;7.10;99.90;;;;;;8383299;28;20291;-74
2023/01/30 01:16:52;;;;;;;;;;;7.10;99.90;;;;;;8370900;28;19924;-74
2023/01/30 01:20:54;;;;;;;;;;;7.20;99.90;;;;;;8375595;28;19924;-74
2023/01/30 01:24:56;;;;;;;;;;;7.20;99.90;;;;;;8388125;28;20375;-75
2023/01/30 01:28:57;;;;;;;;;;;7.20;99.90;;;;;;8373714;28;19924;-75
2023/01/30 01:32:59;;;;;;;;;;;7.20;99.90;;;;;;8385665;28;19951;-75
2023/01/30 01:37:01;;;;;;;;;;;7.20;99.90;;;;;;8382734;28;19968;-75
2023/01/30 01:41:04;;;;;;;;;;;7.20;99.90;;;;;;8380217;28;19925;-75
2023/01/30 01:45:12;;;;;;;;;;;7.20;99.90;;;;;;8380516;28;20027;-74
2023/01/30 01:49:16;;;;;;;;;;;7.10;99.90;;;;;;8383748;28;19979;-74
2023/01/30 01:53:20;;;;;;;;;;;7.10;99.90;;;;;;8373072;28;20389;-75
2023/01/30 01:57:25;;;;;;;;;;;7.10;99.90;;;;;;8389846;28;19975;-75
2023/01/30 02:01:28;;;;;;;;;;;7.20;99.90;;;;;;8390915;28;19924;-74
2023/01/30 02:05:31;;;;;;;;;;;7.20;99.90;;;;;;8383911;28;19924;-74
2023/01/30 02:09:33;;;;;;;;;;;7.20;99.90;;;;;;8394173;28;20027;-74
2023/01/30 02:13:35;;;;;;;;;;;7.20;99.90;;;;;;8385105;28;19940;-74
2023/01/30 02:17:37;;;;;;;;;;;7.20;99.90;;;;;;8384614;28;20015;-74
2023/01/30 02:21:50;;;;;;;;;;;7.20;99.90;;;;;;8387032;28;19932;-74
2023/01/30 02:26:00;;;;;;;;;;;7.10;99.90;;;;;;8385321;28;20395;-74
2023/01/30 02:30:20;;;;;;;;;;;7.10;99.90;;;;;;8394617;28;20438;-74
2023/01/30 02:34:28;;;;;;;;;;;7.10;99.90;;;;;;8403337;28;20366;-74
2023/01/30 02:38:37;;;;;;;;;;;7.10;99.90;;;;;;8392348;28;19927;-74
2023/01/30 02:43:00;;;;;;;;;;;7.10;99.90;;;;;;8391982;28;19939;-73
2023/01/30 02:47:06;;;;;;;;;;;7.10;99.90;;;;;;8371391;28;19928;-73
2023/01/30 02:51:19;;;;;;;;;;;7.00;99.90;;;;;;8396965;28;19961;-73
2023/01/30 02:55:22;;;;;;;;;;;7.00;99.90;;;;;;8393485;28;20366;-73
2023/01/30 02:59:27;;;;;;;;;;;7.00;99.90;;;;;;8395378;28;19961;-73
2023/01/30 03:03:53;;;;;;;;;;;7.00;99.90;;;;;;8372044;28;19939;-73
2023/01/30 03:08:07;;;;;;;;;;;7.00;99.90;;;;;;8392503;28;19928;-73
2023/01/30 03:12:12;;;;;;;;;;;7.00;99.90;;;;;;8375667;28;20498;-74
2023/01/30 03:16:16;;;;;;;;;;;7.00;99.90;;;;;;8369015;28;19924;-73
2023/01/30 03:20:19;;;;;;;;;;;6.90;99.90;;;;;;8371244;28;20410;-74
2023/01/30 03:24:20;;;;;;;;;;;6.90;99.90;;;;;;8380637;28;19932;-73
2023/01/30 03:28:22;;;;;;;;;;;6.90;99.90;;;;;;8382511;28;20380;-74
2023/01/30 03:32:24;;;;;;;;;;;6.90;99.90;;;;;;8390917;28;19924;-74
2023/01/30 03:36:26;;;;;;;;;;;6.90;99.90;;;;;;8396907;28;19931;-74
2023/01/30 03:40:27;;;;;;;;;;;6.90;99.90;;;;;;8374895;28;19935;-74
2023/01/30 03:44:29;;;;;;;;;;;7.00;99.90;;;;;;8385222;28;19924;-74
2023/01/30 03:48:31;;;;;;;;;;;7.00;99.90;;;;;;8375405;28;19925;-73
2023/01/30 03:52:35;;;;;;;;;;;7.00;99.90;;;;;;8395410;28;20000;-74
2023/01/30 03:56:37;;;;;;;;;;;7.00;99.90;;;;;;8395179;28;19928;-73
2023/01/30 04:00:38;;;;;;;;;;;7.10;99.90;;;;;;8398660;28;19931;-73
2023/01/30 04:04:40;;;;;;;;;;;7.10;99.90;;;;;;8377813;28;19924;-74
2023/01/30 04:08:42;;;;;;;;;;;7.20;99.90;;;;;;8377133;28;20367;-74
2023/01/30 04:12:46;;;;;;;;;;;7.20;99.90;;;;;;8392120;28;19929;-74
2023/01/30 04:16:47;;;;;;;;;;;7.30;99.90;;;;;;8375967;28;19936;-74
2023/01/30 04:20:49;;;;;;;;;;;7.30;99.90;;;;;;8387995;28;19974;-74
2023/01/30 04:24:50;;;;;;;;;;;7.30;99.90;;;;;;8369284;28;19924;-74
2023/01/30 04:28:52;;;;;;;;;;;7.40;99.90;;;;;;8390060;28;19924;-74
2023/01/30 04:32:54;;;;;;;;;;;7.40;99.90;;;;;;8388192;28;19970;-74
2023/01/30 04:36:56;;;;;;;;;;;7.50;99.90;;;;;;8382415;28;20368;-74
2023/01/30 04:40:58;;;;;;;;;;;7.50;99.90;;;;;;8390740;28;19974;-74
2023/01/30 04:44:59;;;;;;;;;;;7.50;99.90;;;;;;8381790;28;20023;-74
2023/01/30 04:49:01;;;;;;;;;;;7.60;99.90;;;;;;8371463;28;19934;-74
2023/01/30 04:53:03;;;;;;;;;;;7.60;99.90;;;;;;8383321;28;20033;-74
2023/01/30 04:57:04;;;;;;;;;;;7.60;99.90;;;;;;8393311;28;20006;-74
2023/01/30 05:01:14;;;;;;;;;;;7.60;99.90;;;;;;8371540;28;20014;-74
2023/01/30 05:05:15;;;;;;;;;;;7.50;99.90;;;;;;8369523;28;19924;-74
2023/01/30 05:09:18;;;;;;;;;;;7.50;99.90;;;;;;8368574;28;19936;-74
2023/01/30 05:13:19;;;;;;;;;;;7.50;99.90;;;;;;8374189;28;19930;-74
2023/01/30 05:17:21;;;;;;;;;;;7.50;99.90;;;;;;8391039;28;20269;-74
2023/01/30 05:21:26;;;;;;;;;;;7.50;99.90;;;;;;8394836;28;19981;-74
2023/01/30 05:25:28;;;;;;;;;;;7.50;99.90;;;;;;8375029;28;19924;-74
2023/01/30 05:29:31;;;;;;;;;;;7.50;99.90;;;;;;8386118;28;20448;-74
2023/01/30 05:33:33;;;;;;;;;;;7.50;99.90;;;;;;8384760;28;20443;-74
2023/01/30 05:37:36;;;;;;;;;;;7.50;99.90;;;;;;8366102;28;20015;-74
2023/01/30 05:41:38;;;;;;;;;;;7.50;99.90;;;;;;8391908;28;19928;-74
2023/01/30 05:45:39;;;;;;;;;;;7.50;99.90;;;;;;8383756;28;19929;-74
2023/01/30 05:49:41;;;;;;;;;;;7.50;99.90;;;;;;8391717;28;19971;-74
2023/01/30 05:53:43;;;;;;;;;;;7.50;99.90;;;;;;8371941;28;19948;-74
2023/01/30 05:57:44;;;;;;;;;;;7.40;99.90;;;;;;8388558;28;19929;-74
2023/01/30 06:01:46;;;;;;;;;;;7.40;99.90;;;;;;8390923;28;19950;-74
2023/01/30 06:05:48;;;;;;;;;;;7.30;99.90;;;;;;8392839;28;20039;-74
2023/01/30 06:09:49;;;;;;;;;;;7.20;99.90;;;;;;8390468;28;20024;-74
2023/01/30 06:13:51;;;;;;;;;;;7.10;99.90;;;;;;8372148;28;19925;-74
2023/01/30 06:17:53;;;;;;;;;;;7.10;99.90;;;;;;8388583;28;19929;-74
2023/01/30 06:21:54;;;;;;;;;;;7.00;99.90;;;;;;8385771;28;19925;-74
2023/01/30 06:25:56;;;;;;;;;;;6.90;99.90;;;;;;8380079;28;19982;-74
2023/01/30 06:29:58;;;;;;;;;;;6.90;99.90;;;;;;8390722;28;19936;-74
2023/01/30 06:33:59;;;;;;;;;;;6.80;99.90;;;;;;8387681;28;20299;-74
2023/01/30 06:38:01;;;;;;;;;;;6.70;99.90;;;;;;8386511;28;19947;-74
2023/01/30 06:42:03;;;;;;;;;;;6.70;99.90;;;;;;8388093;28;19952;-74
2023/01/30 06:46:04;;;;;;;;;;;6.60;99.90;;;;;;8381858;28;20302;-74
2023/01/30 06:50:06;;;;;;;;;;;6.50;99.90;;;;;;8355218;28;19925;-74
2023/01/30 06:54:08;;;;;;;;;;;6.50;99.90;;;;;;8364817;28;19924;-74
2023/01/30 06:58:13;;;;;;;;;;;6.50;99.90;;;;;;8390231;28;19932;-74
2023/01/30 07:02:14;;;;;;;;;;;6.40;99.90;;;;;;8395045;28;19924;-74
2023/01/30 07:06:16;;;;;;;;;;;6.40;99.90;;;;;;8395836;28;19932;-75
2023/01/30 07:10:18;;;;;;;;;;;6.40;99.90;;;;;;8386954;28;19932;-74
2023/01/30 07:14:20;;;;;;;;;;;6.40;99.90;;;;;;8397551;28;19928;-75
2023/01/30 07:18:21;;;;;;;;;;;6.30;99.90;;;;;;8387968;28;19935;-74
2023/01/30 07:22:23;;;;;;;;;;;6.30;99.90;;;;;;8385751;28;19946;-74
2023/01/30 07:26:24;;;;;;;;;;;6.30;99.90;;;;;;8374986;28;19931;-75
2023/01/30 07:35:32;;;;;;;;;;;6.30;99.90;;;;;;8383975;28;19967;-74
2023/01/30 07:39:34;;;;;;;;;;;6.30;99.90;;;;;;8400097;28;19932;-74
2023/01/30 07:43:35;;;;;;;;;;;6.30;99.90;;;;;;8369238;28;19925;-75
2023/01/30 07:47:37;;;;;;;;;;;6.30;99.90;;;;;;8387983;28;19948;-74
2023/01/30 07:51:39;;;;;;;;;;;6.30;99.90;;;;;;8383810;28;19963;-74
2023/01/30 07:55:41;;;;;;;;;;;6.30;99.90;;;;;;8396677;28;19924;-74
2023/01/30 07:59:42;;;;;;;;;;;6.30;99.90;;;;;;8394074;28;19936;-74
2023/01/30 08:03:45;;;;;;;;;;;6.40;99.90;;;;;;8387944;28;20303;-74
2023/01/30 08:07:47;;;;;;;;;;;6.40;99.90;;;;;;8391313;28;19925;-74
2023/01/30 08:11:48;;;;;;;;;;;6.40;99.90;;;;;;8396198;28;19935;-74
2023/01/30 08:15:50;;;;;;;;;;;6.50;99.90;;;;;;8377570;28;19931;-75
2023/01/30 08:19:52;;;;;;;;;;;6.60;99.90;;;;;;8388488;28;20019;-74
2023/01/30 08:23:53;;;;;;;;;;;6.60;99.90;;;;;;8393324;28;19924;-75
2023/01/30 08:27:57;;;;;;;;;;;6.60;99.90;;;;;;8382257;28;19925;-74
2023/01/30 08:31:59;;;;;;;;;;;6.70;99.90;;;;;;8387836;28;19941;-75
2023/01/30 08:36:00;;;;;;;;;;;6.70;99.90;;;;;;8376849;28;19924;-75
2023/01/30 08:40:02;;;;;;;;;;;6.80;99.90;;;;;;8385132;28;19936;-75
2023/01/30 08:44:04;;;;;;;;;;;6.90;99.90;;;;;;8386284;28;20393;-75
2023/01/30 08:48:06;;;;;;;;;;;6.90;99.90;;;;;;8375302;28;19924;-75
2023/01/30 08:52:08;;;;;;;;;;;7.00;99.90;;;;;;8368575;28;20300;-74
2023/01/30 08:56:10;;;;;;;;;;;7.10;99.90;;;;;;8388023;28;19967;-74
2023/01/30 09:00:12;;;;;;;;;;;7.10;99.90;;;;;;8361366;28;20291;-75
2023/01/30 09:04:13;;;;;;;;;;;7.20;99.90;;;;;;8388053;28;19932;-74
2023/01/30 09:08:15;;;;;;;;;;;7.20;99.90;;;;;;8384912;28;20280;-75
2023/01/30 09:12:16;;;;;;;;;;;7.20;99.90;;;;;;8368876;28;20008;-74
2023/01/30 09:16:18;;;;;;;;;;;7.20;99.90;;;;;;8387419;28;20023;-75
2023/01/30 09:20:20;;;;;;;;;;;7.20;99.90;;;;;;8381203;28;20008;-74
2023/01/30 09:24:25;;;;;;;;;;;7.20;99.90;;;;;;8382804;28;20399;-75
2023/01/30 09:28:27;;;;;;;;;;;7.30;99.90;;;;;;8374461;28;19924;-74
2023/01/30 09:32:29;;;;;;;;;;;7.30;99.90;;;;;;8371546;28;19928;-75
2023/01/30 09:36:30;;;;;;;;;;;7.30;99.90;;;;;;8383276;28;19930;-74
2023/01/30 09:40:34;;;;;;;;;;;7.40;99.90;;;;;;8372043;28;19924;-75
2023/01/30 09:44:45;;;;;;;;;;;7.50;99.90;;;;;;8365142;28;20424;-75
2023/01/30 09:48:52;;;;;;;;;;;7.50;99.90;;;;;;8364606;28;20047;-75
2023/01/30 09:53:00;;;;;;;;;;;7.60;99.90;;;;;;8386917;28;20419;-75
2023/01/30 09:57:07;;;;;;;;;;;7.70;99.90;;;;;;8368522;28;20326;-75
2023/01/30 10:01:22;;;;;;;;;;;7.80;99.90;;;;;;8386086;28;19931;-75
2023/01/30 10:05:28;;;;;;;;;;;7.90;99.90;;;;;;8386631;28;19939;-75
2023/01/30 10:09:30;;;;;;;;;;;7.90;99.90;;;;;;8388420;28;19931;-75
2023/01/30 10:13:58;;;;;;;;;;;7.80;99.90;;;;;;8370635;28;19964;-75
2023/01/30 10:18:00;;;;;;;;;;;7.80;99.90;;;;;;8379495;28;19924;-75
2023/01/30 10:22:07;;;;;;;;;;;7.70;99.90;;;;;;8369758;28;19931;-75
2023/01/30 10:26:11;;;;;;;;;;;7.70;99.90;;;;;;8385461;28;19942;-75
2023/01/30 10:30:14;;;;;;;;;;;7.80;99.90;;;;;;8365166;28;19928;-75
2023/01/30 10:34:31;;;;;;;;;;;7.80;99.90;;;;;;8386853;28;19924;-75
2023/01/30 10:38:47;;;;;;;;;;;7.80;99.90;;;;;;8380863;28;20405;-75
2023/01/30 10:43:02;;;;;;;;;;;7.90;99.90;;;;;;8379824;28;19925;-75
2023/01/30 10:47:25;;;;;;;;;;;8.00;99.90;;;;;;8365357;28;19931;-75
2023/01/30 10:51:39;;;;;;;;;;;8.00;99.90;;;;;;8363051;28;19938;-75
2023/01/30 10:55:44;;;;;;;;;;;8.00;99.90;;;;;;8393386;28;19924;-75
2023/01/30 10:59:55;;;;;;;;;;;8.00;99.90;;;;;;8390713;28;19924;-75
2023/01/30 11:04:01;;;;;;;;;;;8.00;99.90;;;;;;8397181;28;19970;-75
2023/01/30 11:08:03;;;;;;;;;;;8.10;99.90;;;;;;8391322;28;19939;-75
2023/01/30 11:12:04;;;;;;;;;;;8.20;99.90;;;;;;8387537;28;20376;-75
2023/01/30 11:16:08;;;;;;;;;;;8.20;99.90;;;;;;8386610;28;19983;-75
2023/01/30 11:20:17;;;;;;;;;;;8.50;99.90;;;;;;8373759;28;19940;-75
2023/01/30 11:24:21;;;;;;;;;;;8.90;99.90;;;;;;8386372;28;19933;-75
2023/01/30 11:28:25;;;;;;;;;;;9.50;99.90;;;;;;8367897;28;19931;-76
2023/01/30 11:32:27;;;;;;;;;;;9.90;99.90;;;;;;8390826;28;20389;-75
2023/01/30 11:36:30;;;;;;;;;;;9.70;99.90;;;;;;8386085;28;19932;-75
2023/01/30 11:40:36;;;;;;;;;;;9.60;99.90;;;;;;8380274;28;19943;-75
2023/01/30 11:44:39;;;;;;;;;;;9.50;99.90;;;;;;8363411;28;20043;-76
2023/01/30 11:48:49;;;;;;;;;;;9.70;99.90;;;;;;8367407;28;19964;-75
2023/01/30 11:53:15;;;;;;;;;;;9.80;99.90;;;;;;8399279;28;19924;-75
2023/01/30 11:57:17;;;;;;;;;;;10.10;99.90;;;;;;8389861;28;19924;-75
2023/01/30 12:01:19;;;;;;;;;;;9.90;99.90;;;;;;8390994;28;19924;-75
2023/01/30 12:05:24;;;;;;;;;;;9.70;99.90;;;;;;8390057;28;19972;-75
2023/01/30 12:09:29;;;;;;;;;;;9.70;99.90;;;;;;8375146;28;19998;-75
2023/01/30 12:13:33;;;;;;;;;;;10.20;99.90;;;;;;8387127;28;20261;-75
2023/01/30 12:17:57;;;;;;;;;;;10.30;99.90;;;;;;8368920;28;20305;-76
2023/01/30 12:22:14;;;;;;;;;;;10.30;99.90;;;;;;8367713;28;20463;-75
2023/01/30 12:26:20;;;;;;;;;;;10.00;99.90;;;;;;8394417;28;19950;-75
2023/01/30 12:30:34;;;;;;;;;;;9.90;99.90;;;;;;8396578;28;19967;-75
2023/01/30 12:34:36;;;;;;;;;;;9.70;99.90;;;;;;8387285;28;19937;-75
2023/01/30 12:38:41;;;;;;;;;;;9.40;99.90;;;;;;8390325;28;20388;-75
2023/01/30 12:42:56;;;;;;;;;;;9.30;99.90;;;;;;8389789;28;20425;-75
2023/01/30 12:47:12;;;;;;;;;;;9.20;99.90;;;;;;8382779;28;20335;-75
2023/01/30 12:51:45;;;;;;;;;;;9.20;99.90;;;;;;8387056;28;20066;-75
2023/01/30 12:56:05;;;;;;;;;;;9.30;99.90;;;;;;8318382;28;20375;-75
2023/01/30 13:00:09;;;;;;;;;;;9.30;99.90;;;;;;8389111;28;20371;-75
2023/01/30 13:04:14;;;;;;;;;;;9.20;99.90;;;;;;8389258;28;20350;-75
2023/01/30 13:08:34;;;;;;;;;;;9.20;99.90;;;;;;8369803;28;19925;-75
2023/01/30 13:12:41;;;;;;;;;;;9.10;99.90;;;;;;8388454;28;20376;-75
2023/01/30 13:17:02;;;;;;;;;;;9.00;99.90;;;;;;8372907;28;19928;-76
2023/01/30 13:21:03;;;;;;;;;;;9.00;99.90;;;;;;8369176;28;19924;-75
2023/01/30 13:25:15;;;;;;;;;;;9.00;99.90;;;;;;8387695;28;19972;-75
2023/01/30 13:29:23;;;;;;;;;;;8.90;99.90;;;;;;8401707;28;19947;-75
2023/01/30 13:33:26;;;;;;;;;;;8.90;99.90;;;;;;8360451;28;19931;-75
2023/01/30 13:37:28;;;;;;;;;;;8.80;99.90;;;;;;8378708;28;19924;-75
2023/01/30 13:41:32;;;;;;;;;;;8.70;99.90;;;;;;8368880;28;20379;-75
2023/01/30 13:45:35;;;;;;;;;;;8.70;99.90;;;;;;8375758;28;19924;-76
2023/01/30 13:49:42;;;;;;;;;;;8.70;99.90;;;;;;8387638;28;19940;-75
2023/01/30 13:53:50;;;;;;;;;;;8.70;99.90;;;;;;8386606;28;19989;-76
2023/01/30 13:58:10;;;;;;;;;;;8.80;99.90;;;;;;8386160;28;19924;-75
2023/01/30 14:02:19;;;;;;;;;;;8.80;99.90;;;;;;8364389;28;20007;-75
2023/01/30 14:06:30;;;;;;;;;;;8.80;99.90;;;;;;8384483;28;19928;-75
2023/01/30 14:10:33;;;;;;;;;;;8.80;99.90;;;;;;8406136;28;19933;-75
2023/01/30 14:14:37;;;;;;;;;;;8.80;99.90;;;;;;8390644;28;19935;-76
2023/01/30 14:18:38;;;;;;;;;;;8.80;99.90;;;;;;8388091;28;20384;-76
2023/01/30 14:22:50;;;;;;;;;;;8.80;99.90;;;;;;8399952;28;20320;-76
2023/01/30 14:26:58;;;;;;;;;;;8.70;99.90;;;;;;8396796;28;20444;-75
2023/01/30 14:31:01;;;;;;;;;;;8.70;99.90;;;;;;8364042;28;20398;-76
2023/01/30 14:35:03;;;;;;;;;;;8.80;99.90;;;;;;8380338;28;20272;-75
2023/01/30 14:39:23;;;;;;;;;;;8.70;99.90;;;;;;8376448;28;19932;-76
2023/01/30 14:43:36;;;;;;;;;;;8.70;99.90;;;;;;8374146;28;19925;-75
2023/01/30 14:47:37;;;;;;;;;;;8.70;99.90;;;;;;8349857;28;19931;-76
2023/01/30 14:51:46;;;;;;;;;;;8.60;99.90;;;;;;8369850;28;19974;-75
2023/01/30 14:55:57;;;;;;;;;;;8.60;99.90;;;;;;8371017;28;20411;-76
2023/01/30 15:00:02;;;;;;;;;;;8.50;99.90;;;;;;8357323;28;19940;-76
2023/01/30 15:04:17;;;;;;;;;;;8.50;99.90;;;;;;8358809;28;19928;-76
2023/01/30 15:08:23;;;;;;;;;;;8.50;99.90;;;;;;8376247;28;19932;-76
2023/01/30 15:12:36;;;;;;;;;;;8.50;99.90;;;;;;8377336;28;20261;-75
2023/01/30 15:16:46;;;;;;;;;;;8.50;99.90;;;;;;8375723;28;20010;-75
2023/01/30 15:21:00;;;;;;;;;;;8.40;99.90;;;;;;8380916;28;19939;-76
2023/01/30 15:25:20;;;;;;;;;;;8.40;99.90;;;;;;8377275;28;20879;-76
2023/01/30 15:29:53;;;;;;;;;;;8.40;99.90;;;;;;8363487;28;19929;-75
2023/01/30 15:33:56;;;;;;;;;;;8.40;99.90;;;;;;8376602;28;19925;-76
2023/01/30 15:37:57;;;;;;;;;;;8.40;99.90;;;;;;8370739;28;22447;-75
2023/01/30 15:42:04;;;;;;;;;;;8.50;99.90;;;;;;8381262;28;19928;-75
2023/01/30 15:46:05;;;;;;;;;;;8.60;99.90;;;;;;8350298;28;19924;-75
2023/01/30 15:50:08;;;;;;;;;;;8.70;99.90;;;;;;8372013;28;19936;-76
2023/01/30 15:54:14;;;;;;;;;;;8.70;99.90;;;;;;8366153;28;19938;-76
2023/01/30 15:58:17;;;;;;;;;;;8.70;99.90;;;;;;8367684;28;19931;-75
2023/01/30 16:02:30;;;;;;;;;;;8.60;99.90;;;;;;8366405;28;19944;-75
2023/01/30 16:06:36;;;;;;;;;;;8.50;99.90;;;;;;8356048;28;20247;-75
2023/01/30 16:10:42;;;;;;;;;;;8.50;99.90;;;;;;8368025;28;20281;-75
2023/01/30 16:14:44;;;;;;;;;;;8.50;99.90;;;;;;8342444;28;19947;-76
2023/01/30 16:18:51;;;;;;;;;;;8.40;99.90;;;;;;8358072;28;20314;-75
2023/01/30 16:22:53;;;;;;;;;;;8.30;99.90;;;;;;8347079;28;19971;-75
2023/01/30 16:32:11;;;;;;;;;;;7.80;99.90;;;;;;8361114;28;19920;-75
2023/01/30 16:41:47;;;;;;;;;;;7.20;99.90;;;;;;8330828;28;19991;-75
2023/01/30 16:45:51;;;;;;;;;;;7.00;99.90;;;;;;8354079;28;20030;-74
2023/01/30 16:49:54;;;;;;;;;;;6.80;99.90;;;;;;8362357;28;20399;-75
2023/01/30 16:54:01;;;;;;;;;;;6.70;99.90;;;;;;8376868;28;19932;-75
2023/01/30 16:58:03;;;;;;;;;;;6.60;99.90;;;;;;8358986;28;20399;-75
2023/01/30 17:02:05;;;;;;;;;;;6.50;99.90;;;;;;8372654;28;19990;-75
2023/01/30 17:06:19;;;;;;;;;;;6.50;99.90;;;;;;8357849;28;19928;-75
2023/01/30 17:10:26;;;;;;;;;;;6.50;99.90;;;;;;8344261;28;20398;-75
2023/01/30 17:14:31;;;;;;;;;;;6.40;99.90;;;;;;8352920;28;19933;-75
2023/01/30 17:18:33;;;;;;;;;;;6.40;99.90;;;;;;8371771;28;19932;-75
2023/01/30 17:22:36;;;;;;;;;;;6.50;99.90;;;;;;8365630;28;19934;-75
2023/01/30 17:26:37;;;;;;;;;;;6.50;99.90;;;;;;8370561;28;19924;-75
2023/01/30 17:30:41;;;;;;;;;;;6.60;99.90;;;;;;8375855;28;19924;-75
2023/01/30 17:34:42;;;;;;;;;;;6.60;99.90;;;;;;8360219;28;19928;-75
2023/01/30 17:38:44;;;;;;;;;;;6.50;99.90;;;;;;8367925;28;20303;-75
2023/01/30 17:42:46;;;;;;;;;;;6.50;99.90;;;;;;8339206;28;19931;-75
2023/01/30 17:46:48;;;;;;;;;;;6.40;99.90;;;;;;8326030;28;20395;-75
2023/01/30 17:50:50;;;;;;;;;;;6.30;99.90;;;;;;8334516;28;19968;-75
2023/01/30 17:54:51;;;;;;;;;;;6.30;99.90;;;;;;8329067;28;19932;-75
2023/01/30 17:58:53;;;;;;;;;;;6.30;99.90;;;;;;8324985;28;20023;-75
2023/01/30 18:02:54;;;;;;;;;;;6.30;99.90;;;;;;8336010;28;19968;-75
2023/01/30 18:07:02;;;;;;;;;;;6.20;99.90;;;;;;8353585;28;20003;-75
2023/01/30 18:11:04;;;;;;;;;;;6.20;99.90;;;;;;8327349;28;20408;-75
2023/01/30 18:15:06;;;;;;;;;;;6.20;99.90;;;;;;8328732;28;20285;-75
2023/01/30 18:19:11;;;;;;;;;;;6.20;99.90;;;;;;8325354;28;19926;-75
2023/01/30 18:23:13;;;;;;;;;;;6.30;99.90;;;;;;8362039;28;20315;-75
2023/01/30 18:27:15;;;;;;;;;;;6.30;99.90;;;;;;8332951;28;19925;-75
2023/01/30 18:31:16;;;;;;;;;;;6.30;99.90;;;;;;8364915;28;19968;-74
2023/01/30 18:35:18;;;;;;;;;;;6.30;99.90;;;;;;8332586;28;19925;-75
2023/01/30 18:39:20;;;;;;;;;;;6.20;99.90;;;;;;8334568;28;20296;-75
2023/01/30 18:43:21;;;;;;;;;;;6.10;99.90;;;;;;8362827;28;19966;-75
2023/01/30 18:47:23;;;;;;;;;;;6.10;99.90;;;;;;8363677;28;19930;-75
2023/01/30 18:51:29;;;;;;;;;;;6.00;99.90;;;;;;8376647;28;20437;-75
2023/01/30 18:55:34;;;;;;;;;;;5.90;99.90;;;;;;8366307;28;20616;-75
2023/01/30 18:59:38;;;;;;;;;;;5.80;99.90;;;;;;8362168;28;19925;-75
2023/01/30 19:03:40;;;;;;;;;;;5.70;99.90;;;;;;8363631;28;20425;-75
2023/01/30 19:07:41;;;;;;;;;;;5.60;99.90;;;;;;8367020;28;20402;-76
2023/01/30 19:16:04;;;;;;;;;;;5.50;99.90;;;;;;8368401;28;19928;-76
2023/01/30 19:20:09;;;;;;;;;;;5.40;99.90;;;;;;8385975;28;19939;-75
2023/01/30 19:24:12;;;;;;;;;;;5.40;99.90;;;;;;8367728;28;19968;-75
2023/01/30 19:28:14;;;;;;;;;;;5.40;99.90;;;;;;8347514;28;20023;-75
2023/01/30 19:32:15;;;;;;;;;;;5.30;99.90;;;;;;8372097;28;20015;-75
2023/01/30 19:36:18;;;;;;;;;;;5.30;99.90;;;;;;8355496;28;20380;-75
2023/01/30 19:40:20;;;;;;;;;;;5.20;99.90;;;;;;8376394;28;19925;-75
2023/01/30 19:44:22;;;;;;;;;;;5.10;99.90;;;;;;8367589;28;19951;-75
2023/01/30 19:48:24;;;;;;;;;;;5.00;99.90;;;;;;8376161;28;19925;-75
2023/01/30 19:52:26;;;;;;;;;;;4.90;99.90;;;;;;8372489;28;20027;-75
2023/01/30 19:56:28;;;;;;;;;;;4.90;99.90;;;;;;8365818;28;20391;-75
2023/01/30 20:00:29;;;;;;;;;;;4.80;99.90;;;;;;8369876;28;19963;-75
2023/01/30 20:04:31;;;;;;;;;;;4.80;99.90;;;;;;8368457;28;19991;-75
2023/01/30 20:08:33;;;;;;;;;;;4.80;99.90;;;;;;8365631;28;19935;-75
2023/01/30 20:12:36;;;;;;;;;;;4.80;99.90;;;;;;8352173;28;19924;-75
2023/01/30 20:16:39;;;;;;;;;;;4.70;99.90;;;;;;8365492;28;19928;-75
2023/01/30 20:20:40;;;;;;;;;;;4.70;99.90;;;;;;8367171;28;19939;-75
2023/01/30 20:24:42;;;;;;;;;;;4.70;99.90;;;;;;8351632;28;19935;-75
2023/01/30 20:28:44;;;;;;;;;;;4.70;99.90;;;;;;8369315;28;19975;-75
2023/01/30 20:32:45;;;;;;;;;;;4.70;99.90;;;;;;8349493;28;19932;-75
2023/01/30 20:36:48;;;;;;;;;;;4.80;99.90;;;;;;8368692;28;19932;-75
2023/01/30 20:40:50;;;;;;;;;;;4.70;99.90;;;;;;8368693;28;20257;-75
2023/01/30 20:44:51;;;;;;;;;;;4.80;99.90;;;;;;8344550;28;19955;-75
2023/01/30 20:48:54;;;;;;;;;;;4.80;99.90;;;;;;8368236;28;19951;-75
2023/01/30 20:52:56;;;;;;;;;;;4.70;99.90;;;;;;8369349;28;20265;-75
2023/01/30 20:56:58;;;;;;;;;;;4.70;99.90;;;;;;8363730;28;19931;-75
2023/01/30 21:01:07;;;;;;;;;;;4.70;99.90;;;;;;8379393;28;20297;-74
2023/01/30 21:05:08;;;;;;;;;;;4.70;99.90;;;;;;8349005;28;19925;-75
2023/01/30 21:09:12;;;;;;;;;;;4.70;99.90;;;;;;8350752;28;19932;-74
2023/01/30 21:13:14;;;;;;;;;;;4.80;99.90;;;;;;8366181;28;19968;-75
2023/01/30 21:17:15;;;;;;;;;;;4.80;99.90;;;;;;8345197;28;20379;-75
2023/01/30 21:21:19;;;;;;;;;;;4.80;99.90;;;;;;8353890;28;19968;-74
2023/01/30 21:25:21;;;;;;;;;;;4.80;99.90;;;;;;8363771;28;20367;-75
2023/01/30 21:29:23;;;;;;;;;;;4.70;99.90;;;;;;8345351;28;19925;-75
2023/01/30 21:33:25;;;;;;;;;;;4.70;99.90;;;;;;8357363;28;20288;-75
2023/01/30 21:46:07;;;;;;;;;;;4.80;99.90;;;;;;8362690;28;19959;-75
2023/01/30 21:50:09;;;;;;;;;;;4.70;99.90;;;;;;8363200;28;19924;-75
2023/01/30 21:54:11;;;;;;;;;;;4.80;99.90;;;;;;8367448;28;19924;-75
2023/01/30 21:58:13;;;;;;;;;;;4.90;99.90;;;;;;8370809;28;20396;-75
2023/01/30 22:02:14;;;;;;;;;;;5.00;99.90;;;;;;8357560;28;19986;-75
2023/01/30 22:06:16;;;;;;;;;;;5.00;99.90;;;;;;8394992;28;19932;-75
2023/01/30 22:10:18;;;;;;;;;;;5.00;99.90;;;;;;8388045;28;19978;-75
2023/01/30 22:14:19;;;;;;;;;;;5.00;99.90;;;;;;8368994;28;19924;-75
2023/01/30 22:18:21;;;;;;;;;;;4.90;99.90;;;;;;8392742;28;20418;-75
2023/01/30 22:22:23;;;;;;;;;;;4.90;99.90;;;;;;8386835;28;19928;-75
2023/01/30 22:26:25;;;;;;;;;;;4.90;99.90;;;;;;8362495;28;19932;-74
2023/01/30 22:30:27;;;;;;;;;;;4.80;99.90;;;;;;8383565;28;20283;-75
2023/01/30 22:39:32;;;;;;;;;;;4.60;99.90;;;;;;8381593;28;19997;-74
2023/01/30 22:43:34;;;;;;;;;;;4.50;99.90;;;;;;8392519;28;19938;-75
2023/01/30 22:47:36;;;;;;;;;;;4.40;99.90;;;;;;8363541;28;19924;-75
2023/01/30 22:51:39;;;;;;;;;;;4.40;99.90;;;;;;8393758;28;19924;-74
2023/01/30 22:55:41;;;;;;;;;;;4.40;99.90;;;;;;8372074;28;19928;-75
2023/01/30 22:59:43;;;;;;;;;;;4.30;99.90;;;;;;8382778;28;19971;-75
2023/01/30 23:03:45;;;;;;;;;;;4.30;99.90;;;;;;8371522;28;19924;-75
2023/01/30 23:07:47;;;;;;;;;;;4.20;99.90;;;;;;8387269;28;19931;-75
2023/01/30 23:16:11;;;;;;;;;;;4.10;99.90;;;;;;8387360;28;19924;-74
2023/01/30 23:25:15;;;;;;;;;;;3.90;99.90;;;;;;8388681;28;19983;-75
2023/01/30 23:29:18;;;;;;;;;;;3.90;99.90;;;;;;8364534;28;19925;-75
2023/01/30 23:33:20;;;;;;;;;;;3.80;99.90;;;;;;8389508;28;19924;-75
2023/01/30 23:38:14;;;;;;;;;;;3.80;99.90;;;;;;8387484;28;19990;-75
2023/01/30 23:41:43;;;;;;;;;;;3.70;99.90;;;;;;8386700;28;19942;-74
2023/01/30 23:45:45;;;;;;;;;;;3.70;99.90;;;;;;8368519;28;19924;-75
2023/01/30 23:49:46;;;;;;;;;;;3.70;99.90;;;;;;8388207;28;20269;-75
2023/01/30 23:53:49;;;;;;;;;;;3.60;99.90;;;;;;8388718;28;19976;-75
2023/01/30 23:57:50;;;;;;;;;;;3.60;99.90;;;;;;8382827;28;19925;-75
